createdAt,value
2017-09-04T00:01:40.151Z,7.50
2017-09-04T00:04:07.657Z,8.30
2017-09-04T00:06:35.167Z,8.70
2017-09-04T00:09:02.674Z,9.30
2017-09-04T00:11:30.200Z,8.37
2017-09-04T00:13:57.763Z,7.30
2017-09-04T00:16:25.268Z,7.60
2017-09-04T00:18:52.781Z,8.27
2017-09-04T00:21:20.328Z,7.60
2017-09-04T00:23:47.832Z,7.60
2017-09-04T00:26:15.357Z,7.20
2017-09-04T00:28:42.897Z,8.40
2017-09-04T00:31:10.384Z,7.47
2017-09-04T00:33:37.900Z,8.03
2017-09-04T00:36:05.427Z,7.80
2017-09-04T00:38:32.958Z,7.37
2017-09-04T00:41:00.452Z,7.33
2017-09-04T00:43:27.981Z,8.40
2017-09-04T00:45:55.507Z,7.80
2017-09-04T00:48:23.017Z,9.17
2017-09-04T00:50:50.534Z,7.90
2017-09-04T00:53:18.076Z,8.60
2017-09-04T00:55:45.573Z,7.80
2017-09-04T00:58:13.097Z,8.13
2017-09-04T01:00:40.594Z,8.07
2017-09-04T01:03:08.116Z,7.63
2017-09-04T01:05:35.686Z,8.60
2017-09-04T01:08:03.236Z,9.53
2017-09-04T01:10:30.759Z,7.10
2017-09-04T01:12:58.282Z,8.13
2017-09-04T01:15:25.791Z,8.43
2017-09-04T01:17:53.383Z,8.40
2017-09-04T01:20:21.030Z,9.03
2017-09-04T01:22:48.557Z,8.27
2017-09-04T01:25:16.088Z,9.10
2017-09-04T01:27:43.620Z,9.00
2017-09-04T01:30:11.135Z,8.50
2017-09-04T01:32:38.671Z,8.03
2017-09-04T01:35:06.219Z,8.20
2017-09-04T01:37:33.732Z,8.63
2017-09-04T01:40:01.238Z,9.77
2017-09-04T01:42:28.761Z,9.90
2017-09-04T01:44:56.261Z,9.67
2017-09-04T01:47:23.779Z,9.43
2017-09-04T01:49:51.321Z,9.47
2017-09-04T01:52:18.844Z,9.87
2017-09-04T01:54:46.355Z,8.40
2017-09-04T01:57:13.897Z,10.20
2017-09-04T01:59:41.412Z,8.83
2017-09-04T02:02:08.933Z,8.97
2017-09-04T02:04:36.515Z,9.30
2017-09-04T02:07:04.034Z,9.13
2017-09-04T02:09:32.324Z,9.77
2017-09-04T02:11:59.852Z,9.40
2017-09-04T02:14:27.367Z,9.53
2017-09-04T02:16:54.897Z,11.73
2017-09-04T02:19:22.455Z,9.23
2017-09-04T02:21:49.959Z,9.63
2017-09-04T02:24:17.464Z,9.37
2017-09-04T02:26:45.021Z,8.93
2017-09-04T02:29:12.529Z,9.60
2017-09-04T02:31:40.033Z,10.20
2017-09-04T02:34:07.604Z,9.37
2017-09-04T02:36:35.133Z,9.33
2017-09-04T02:39:02.637Z,10.10
2017-09-04T02:41:30.179Z,9.30
2017-09-04T02:43:58.466Z,9.60
2017-09-04T02:46:25.975Z,10.83
2017-09-04T02:48:53.492Z,9.23
2017-09-04T02:51:21.011Z,11.07
2017-09-04T02:53:48.516Z,9.43
2017-09-04T02:56:16.089Z,12.00
2017-09-04T02:58:43.632Z,9.67
2017-09-04T03:01:11.141Z,10.17
2017-09-04T03:03:38.696Z,10.23
2017-09-04T03:06:06.222Z,10.57
2017-09-04T03:08:33.783Z,11.30
2017-09-04T03:11:01.317Z,10.97
2017-09-04T03:13:28.841Z,11.23
2017-09-04T03:15:56.440Z,10.10
2017-09-04T03:18:24.024Z,10.20
2017-09-04T03:20:51.556Z,10.80
2017-09-04T03:23:19.834Z,11.50
2017-09-04T03:25:48.135Z,10.67
2017-09-04T03:28:15.666Z,11.73
2017-09-04T03:30:43.191Z,10.53
2017-09-04T03:33:10.756Z,11.13
2017-09-04T03:35:38.277Z,10.80
2017-09-04T03:38:05.805Z,11.67
2017-09-04T03:40:33.329Z,10.77
2017-09-04T03:43:00.852Z,11.47
2017-09-04T03:45:28.369Z,10.97
2017-09-04T03:47:55.909Z,12.10
2017-09-04T03:50:23.428Z,10.20
2017-09-04T03:52:50.949Z,11.23
2017-09-04T03:55:18.499Z,11.20
2017-09-04T03:57:46.005Z,10.73
2017-09-04T04:00:13.540Z,13.90
2017-09-04T04:02:41.084Z,12.30
2017-09-04T04:05:08.616Z,12.23
2017-09-04T04:07:36.138Z,13.10
2017-09-04T04:10:03.681Z,11.13
2017-09-04T04:12:31.189Z,10.40
2017-09-04T04:14:58.697Z,11.37
2017-09-04T04:17:26.221Z,10.30
2017-09-04T04:19:53.732Z,13.07
2017-09-04T04:22:21.237Z,11.50
2017-09-04T04:24:48.769Z,10.80
2017-09-04T04:27:16.280Z,11.17
2017-09-04T04:29:43.806Z,13.13
2017-09-04T04:32:11.343Z,11.67
2017-09-04T04:34:38.898Z,11.77
2017-09-04T04:37:06.422Z,12.57
2017-09-04T04:39:33.964Z,10.57
2017-09-04T04:42:01.483Z,10.97
2017-09-04T04:44:28.999Z,10.60
2017-09-04T04:46:56.663Z,11.43
2017-09-04T04:49:24.165Z,12.27
2017-09-04T04:51:51.685Z,10.97
2017-09-04T04:54:19.220Z,10.40
2017-09-04T04:56:47.512Z,10.77
2017-09-04T04:59:15.017Z,13.23
2017-09-04T05:01:42.541Z,9.67
2017-09-04T05:04:10.096Z,16.33
2017-09-04T05:06:37.623Z,10.40
2017-09-04T05:09:05.936Z,10.27
2017-09-04T05:11:33.448Z,10.73
2017-09-04T05:14:01.072Z,10.83
2017-09-04T05:16:28.617Z,10.10
2017-09-04T05:18:56.128Z,9.90
2017-09-04T05:21:23.652Z,13.40
2017-09-04T05:23:51.199Z,12.23
2017-09-04T05:26:18.734Z,10.67
2017-09-04T05:28:47.010Z,10.63
2017-09-04T05:31:15.322Z,11.20
2017-09-04T05:33:42.842Z,12.43
2017-09-04T05:36:10.363Z,12.20
2017-09-04T05:38:37.877Z,10.50
2017-09-04T05:41:05.401Z,9.93
2017-09-04T05:43:32.916Z,10.40
2017-09-04T05:46:00.458Z,14.93
2017-09-04T05:48:27.974Z,9.57
2017-09-04T05:50:55.509Z,12.63
2017-09-04T05:53:23.065Z,13.23
2017-09-04T05:55:50.568Z,10.60
2017-09-04T05:58:18.072Z,10.23
2017-09-04T06:00:45.619Z,11.57
2017-09-04T06:03:13.139Z,9.97
2017-09-04T06:05:41.107Z,10.33
2017-09-04T06:08:08.637Z,10.30
2017-09-04T06:10:36.137Z,13.80
2017-09-04T06:13:03.637Z,10.97
2017-09-04T06:15:31.179Z,10.17
2017-09-04T06:17:58.824Z,10.30
2017-09-04T06:20:26.327Z,9.83
2017-09-04T06:22:53.843Z,10.23
2017-09-04T06:25:21.407Z,11.00
2017-09-04T06:27:48.944Z,9.60
2017-09-04T06:30:16.461Z,11.67
2017-09-04T06:32:43.990Z,8.97
2017-09-04T06:35:11.508Z,9.63
2017-09-04T06:37:39.185Z,10.47
2017-09-04T06:40:06.712Z,11.30
2017-09-04T06:42:34.264Z,9.30
2017-09-04T06:47:36.172Z,10.07
2017-09-04T06:50:03.674Z,8.40
2017-09-04T06:52:31.193Z,8.40
2017-09-04T06:54:58.739Z,10.77
2017-09-04T06:57:26.362Z,8.13
2017-09-04T06:59:53.883Z,11.63
2017-09-04T07:02:22.189Z,11.00
2017-09-04T07:04:49.694Z,9.23
2017-09-04T07:07:17.227Z,11.40
2017-09-04T07:09:45.134Z,9.23
2017-09-04T07:12:12.665Z,8.97
2017-09-04T07:14:40.185Z,13.10
2017-09-04T07:17:07.735Z,11.53
2017-09-04T07:19:35.233Z,8.40
2017-09-04T07:22:02.778Z,7.63
2017-09-04T07:24:30.300Z,8.70
2017-09-04T07:26:57.807Z,8.67
2017-09-04T07:29:25.307Z,8.03
2017-09-04T07:31:52.867Z,8.17
2017-09-04T07:34:20.387Z,7.63
2017-09-04T07:36:47.903Z,7.50
2017-09-04T07:39:15.444Z,11.03
2017-09-04T07:41:43.006Z,8.33
2017-09-04T07:44:10.524Z,8.10
2017-09-04T07:46:38.072Z,10.47
2017-09-04T07:49:05.561Z,9.37
2017-09-04T07:51:33.052Z,8.97
2017-09-04T07:54:00.600Z,8.50
2017-09-04T07:56:28.110Z,7.67
2017-09-04T07:58:55.650Z,8.33
2017-09-04T08:01:23.199Z,8.23
2017-09-04T08:03:50.721Z,7.47
2017-09-04T08:06:18.224Z,10.90
2017-09-04T08:08:45.756Z,7.63
2017-09-04T08:11:13.272Z,7.23
2017-09-04T08:13:40.803Z,13.70
2017-09-04T08:16:09.725Z,6.33
2017-09-04T08:18:37.409Z,6.40
2017-09-04T08:21:05.014Z,7.20
2017-09-04T08:23:32.573Z,6.23
2017-09-04T08:26:00.087Z,9.37
2017-09-04T08:28:27.702Z,5.93
2017-09-04T08:30:55.243Z,6.80
2017-09-04T08:33:23.520Z,9.10
2017-09-04T08:35:51.043Z,5.23
2017-09-04T08:38:19.016Z,8.33
2017-09-04T08:40:46.540Z,5.77
2017-09-04T08:43:14.063Z,8.23
2017-09-04T08:45:41.595Z,5.77
2017-09-04T08:48:09.105Z,7.70
2017-09-04T08:50:36.601Z,5.60
2017-09-04T08:53:04.134Z,11.40
2017-09-04T08:55:31.659Z,6.13
2017-09-04T08:57:59.231Z,5.90
2017-09-04T09:00:26.849Z,4.87
2017-09-04T09:02:54.373Z,5.50
2017-09-04T09:05:21.889Z,6.20
2017-09-04T09:07:49.431Z,6.13
2017-09-04T09:10:16.986Z,6.50
2017-09-04T09:12:44.524Z,5.67
2017-09-04T09:15:12.040Z,5.60
2017-09-04T09:17:39.585Z,7.27
2017-09-04T09:20:07.202Z,6.97
2017-09-04T09:22:34.728Z,6.70
2017-09-04T09:25:02.282Z,10.17
2017-09-04T09:27:29.808Z,5.33
2017-09-04T09:29:57.304Z,4.80
2017-09-04T09:32:24.845Z,5.73
2017-09-04T09:34:52.346Z,6.13
2017-09-04T09:37:19.851Z,3.83
2017-09-04T09:39:47.584Z,4.63
2017-09-04T09:42:15.201Z,4.70
2017-09-04T09:44:42.717Z,3.73
2017-09-04T09:47:10.208Z,4.60
2017-09-04T09:49:37.737Z,5.47
2017-09-04T09:52:05.262Z,4.90
2017-09-04T09:54:32.770Z,5.47
2017-09-04T09:57:00.309Z,6.97
2017-09-04T09:59:27.812Z,3.83
2017-09-04T10:01:56.093Z,4.17
2017-09-04T10:04:23.624Z,3.80
2017-09-04T10:06:51.161Z,6.20
2017-09-04T10:09:18.673Z,7.30
2017-09-04T10:11:46.268Z,4.43
2017-09-04T10:14:13.774Z,5.23
2017-09-04T10:16:41.335Z,4.17
2017-09-04T10:19:08.893Z,3.67
2017-09-04T10:21:36.397Z,4.33
2017-09-04T10:24:03.914Z,4.77
2017-09-04T10:26:31.444Z,4.70
2017-09-04T10:28:58.988Z,4.10
2017-09-04T10:31:26.539Z,3.10
2017-09-04T10:33:54.187Z,5.63
2017-09-04T10:36:21.694Z,4.40
2017-09-04T10:38:49.239Z,5.13
2017-09-04T10:41:16.732Z,4.40
2017-09-04T10:43:44.293Z,3.83
2017-09-04T10:46:11.786Z,4.63
2017-09-04T10:48:39.284Z,4.13
2017-09-04T10:51:06.809Z,5.70
2017-09-04T10:53:34.327Z,4.90
2017-09-04T10:56:01.822Z,4.73
2017-09-04T10:58:29.342Z,3.80
2017-09-04T11:00:57.621Z,4.33
2017-09-04T11:03:25.183Z,6.23
2017-09-04T11:05:52.742Z,6.80
2017-09-04T11:08:20.265Z,7.23
2017-09-04T11:10:47.769Z,5.30
2017-09-04T11:13:15.325Z,7.93
2017-09-04T11:15:42.848Z,5.30
2017-09-04T11:18:10.361Z,6.07
2017-09-04T11:20:37.875Z,4.10
2017-09-04T11:23:05.366Z,5.03
2017-09-04T11:25:32.884Z,8.03
2017-09-04T11:28:00.417Z,4.13
2017-09-04T11:30:27.930Z,4.07
2017-09-04T11:32:55.456Z,4.13
2017-09-04T11:35:22.987Z,3.87
2017-09-04T11:37:50.509Z,6.70
2017-09-04T11:40:18.010Z,6.10
2017-09-04T11:42:45.588Z,8.03
2017-09-04T11:45:13.103Z,3.80
2017-09-04T11:47:40.657Z,6.67
2017-09-04T11:50:08.211Z,3.83
2017-09-04T11:52:35.796Z,3.30
2017-09-04T11:55:03.299Z,3.40
2017-09-04T11:57:30.824Z,2.90
2017-09-04T11:59:58.348Z,3.33
2017-09-04T12:02:25.865Z,3.47
2017-09-04T12:04:53.383Z,3.97
2017-09-04T12:07:20.891Z,4.10
2017-09-04T12:09:48.391Z,6.23
2017-09-04T12:12:15.935Z,6.70
2017-09-04T12:14:43.459Z,4.60
2017-09-04T12:17:10.957Z,3.70
2017-09-04T12:19:38.481Z,4.17
2017-09-04T12:22:05.993Z,4.70
2017-09-04T12:24:33.493Z,4.30
2017-09-04T12:27:01.033Z,4.97
2017-09-04T12:29:28.546Z,3.53
2017-09-04T12:31:56.813Z,4.23
2017-09-04T12:34:24.354Z,4.33
2017-09-04T12:36:51.864Z,4.50
2017-09-04T12:39:19.372Z,4.67
2017-09-04T12:41:46.893Z,5.10
2017-09-04T12:44:14.397Z,8.30
2017-09-04T12:46:41.889Z,5.23
2017-09-04T12:49:09.449Z,5.93
2017-09-04T12:51:36.952Z,6.23
2017-09-04T12:54:04.438Z,5.73
2017-09-04T12:56:32.051Z,5.00
2017-09-04T12:58:59.581Z,6.97
2017-09-04T13:01:27.100Z,8.63
2017-09-04T13:03:54.599Z,5.77
2017-09-04T13:06:22.137Z,5.30
2017-09-04T13:08:49.663Z,5.10
2017-09-04T13:11:23.040Z,5.77
2017-09-04T13:13:56.371Z,4.93
2017-09-04T13:16:29.775Z,6.83
2017-09-04T13:19:02.961Z,5.60
2017-09-04T13:21:36.293Z,5.00
2017-09-04T13:27:23.035Z,5.47
2017-09-04T13:29:56.128Z,5.80
2017-09-04T13:32:29.423Z,5.40
2017-09-04T13:35:02.688Z,5.17
2017-09-04T13:37:31.152Z,6.80
2017-09-04T13:40:04.440Z,6.80
2017-09-04T13:42:37.736Z,8.00
2017-09-04T13:45:10.890Z,8.20
2017-09-04T13:47:44.044Z,9.17
2017-09-04T13:50:31.275Z,8.43
2017-09-04T13:53:08.732Z,9.40
2017-09-04T13:55:52.161Z,9.30
2017-09-04T13:58:39.599Z,8.80
2017-09-04T14:01:25.733Z,11.97
2017-09-04T14:04:08.961Z,9.20
2017-09-04T14:06:43.106Z,10.33
2017-09-04T14:09:28.487Z,9.83
2017-09-04T14:12:01.602Z,9.60
2017-09-04T14:14:35.648Z,8.70
2017-09-04T14:17:14.001Z,7.87
2017-09-04T14:19:41.533Z,8.17
2017-09-04T14:22:09.047Z,9.40
2017-09-04T14:24:36.571Z,10.27
2017-09-04T14:27:04.139Z,10.50
2017-09-04T14:29:31.697Z,10.80
2017-09-04T14:31:59.223Z,10.03
2017-09-04T14:34:26.754Z,10.40
2017-09-04T14:36:54.254Z,9.83
2017-09-04T14:39:21.763Z,9.63
2017-09-04T14:41:49.320Z,9.20
2017-09-04T14:44:17.280Z,10.27
2017-09-04T14:46:47.224Z,8.70
2017-09-04T14:49:14.769Z,10.00
2017-09-04T14:51:42.280Z,8.93
2017-09-04T14:54:09.829Z,10.17
2017-09-04T14:56:37.396Z,10.37
2017-09-04T14:59:04.908Z,8.30
2017-09-04T15:01:32.437Z,10.03
2017-09-04T15:03:59.960Z,8.83
2017-09-04T15:06:27.483Z,10.13
2017-09-04T15:08:54.985Z,10.07
2017-09-04T15:11:22.508Z,11.73
2017-09-04T15:13:50.024Z,13.63
2017-09-04T15:16:18.314Z,10.57
2017-09-04T15:18:45.869Z,12.17
2017-09-04T15:21:13.368Z,11.87
2017-09-04T15:23:40.869Z,12.07
2017-09-04T15:26:08.388Z,12.60
2017-09-04T15:28:35.911Z,13.00
2017-09-04T15:31:03.425Z,12.20
2017-09-04T15:33:30.957Z,12.60
2017-09-04T15:35:58.457Z,13.70
2017-09-04T15:38:25.960Z,12.77
2017-09-04T15:40:53.506Z,13.47
2017-09-04T15:43:21.032Z,15.67
2017-09-04T15:45:48.552Z,18.10
2017-09-04T15:48:16.120Z,22.30
2017-09-04T15:50:43.638Z,15.20
2017-09-04T15:53:11.172Z,20.20
2017-09-04T15:55:38.742Z,18.77
2017-09-04T15:58:06.323Z,18.63
2017-09-04T16:00:33.853Z,20.70
2017-09-04T16:03:01.410Z,19.57
2017-09-04T16:08:33.482Z,19.27
2017-09-04T16:11:01.045Z,21.30
2017-09-04T16:13:29.032Z,20.57
2017-09-04T16:16:07.429Z,22.90
2017-09-04T16:18:35.601Z,19.83
2017-09-04T16:21:06.736Z,25.40
2017-09-04T16:29:39.755Z,25.30
2017-09-04T16:32:09.794Z,24.43
2017-09-04T16:34:53.045Z,28.10
2017-09-04T16:37:20.580Z,25.23
2017-09-04T16:39:48.227Z,29.03
2017-09-04T16:42:18.633Z,27.00
2017-09-04T16:44:47.112Z,32.33
2017-09-04T16:47:32.371Z,29.17
2017-09-04T16:49:59.904Z,26.20
2017-09-04T16:52:30.274Z,28.57
2017-09-04T16:54:58.436Z,29.57
2017-09-04T16:57:26.633Z,32.97
2017-09-04T16:59:54.175Z,31.07
2017-09-04T17:02:22.493Z,27.90
2017-09-04T17:04:50.066Z,28.67
2017-09-04T17:07:17.603Z,26.97
2017-09-04T17:09:55.073Z,28.60
2017-09-04T17:12:23.192Z,26.63
2017-09-04T17:14:50.701Z,27.03
2017-09-04T17:17:19.838Z,27.47
2017-09-04T17:19:52.056Z,31.63
2017-09-04T17:25:17.162Z,27.30
2017-09-04T17:27:44.721Z,24.17
2017-09-04T17:30:12.251Z,27.77
2017-09-04T17:32:39.910Z,24.80
2017-09-04T17:35:07.487Z,26.23
2017-09-04T17:37:35.065Z,28.40
2017-09-04T17:40:02.669Z,27.37
2017-09-04T17:42:30.228Z,25.53
2017-09-04T17:44:57.745Z,30.87
2017-09-04T17:47:25.244Z,26.20
2017-09-04T17:49:52.813Z,26.65
2017-09-04T17:52:20.353Z,26.53
2017-09-04T17:54:47.995Z,24.30
2017-09-04T17:57:15.601Z,24.40
2017-09-04T17:59:43.257Z,28.37
2017-09-04T18:02:10.804Z,26.10
2017-09-04T18:04:38.341Z,27.47
2017-09-04T18:07:05.979Z,27.33
2017-09-04T18:09:33.535Z,24.03
2017-09-04T18:12:01.078Z,26.70
2017-09-04T18:14:28.637Z,27.67
2017-09-04T18:16:56.285Z,26.47
2017-09-04T18:19:23.878Z,26.20
2017-09-04T18:21:51.589Z,25.80
2017-09-04T18:24:19.140Z,25.17
2017-09-04T18:26:47.490Z,26.60
2017-09-04T18:29:15.078Z,23.87
2017-09-04T18:31:43.365Z,29.77
2017-09-04T18:34:10.943Z,26.27
2017-09-04T18:36:38.823Z,23.10
2017-09-04T18:39:06.677Z,25.60
2017-09-04T18:41:34.300Z,29.40
2017-09-04T18:44:01.916Z,24.97
2017-09-04T18:46:29.539Z,30.60
2017-09-04T18:48:57.107Z,24.60
2017-09-04T18:51:24.782Z,29.37
2017-09-04T18:53:52.397Z,29.70
2017-09-04T18:56:20.053Z,29.53
2017-09-04T18:58:47.710Z,30.47
2017-09-04T19:01:15.431Z,32.30
2017-09-04T19:03:43.016Z,32.03
2017-09-04T19:06:10.571Z,32.37
2017-09-04T19:08:38.152Z,30.07
2017-09-04T19:11:05.736Z,28.33
2017-09-04T19:13:33.377Z,33.23
2017-09-04T19:16:00.965Z,32.67
2017-09-04T19:18:28.550Z,36.37
2017-09-04T19:20:56.149Z,36.97
2017-09-04T19:23:23.752Z,32.73
2017-09-04T19:25:51.543Z,33.23
2017-09-04T19:28:19.142Z,29.43
2017-09-04T19:30:47.485Z,31.13
2017-09-04T19:33:15.024Z,28.30
2017-09-04T19:35:42.552Z,29.73
2017-09-04T19:38:10.133Z,30.80
2017-09-04T19:40:37.720Z,29.45
2017-09-04T19:43:05.246Z,28.30
2017-09-04T19:45:32.840Z,33.17
2017-09-04T19:48:00.422Z,33.10
2017-09-04T19:50:27.958Z,28.00
2017-09-04T19:52:55.505Z,28.70
2017-09-04T19:55:23.077Z,24.93
2017-09-04T19:57:50.615Z,24.17
2017-09-04T20:00:18.143Z,25.27
2017-09-04T20:02:45.705Z,31.50
2017-09-04T20:05:13.234Z,26.93
2017-09-04T20:07:40.760Z,28.50
2017-09-04T20:10:08.298Z,28.93
2017-09-04T20:12:35.794Z,28.70
2017-09-04T20:15:03.309Z,24.60
2017-09-04T20:17:30.855Z,22.83
2017-09-04T20:19:58.780Z,23.57
2017-09-04T20:22:26.373Z,22.67
2017-09-04T20:24:53.903Z,27.30
2017-09-04T20:27:21.416Z,27.00
2017-09-04T20:29:48.980Z,25.17
2017-09-04T20:32:16.517Z,28.00
2017-09-04T20:34:44.139Z,25.80
2017-09-04T20:37:11.704Z,27.77
2017-09-04T20:39:39.254Z,26.50
2017-09-04T20:42:06.787Z,27.53
2017-09-04T20:44:34.337Z,26.80
2017-09-04T20:47:01.861Z,30.40
2017-09-04T20:49:29.395Z,27.63
2017-09-04T20:51:56.935Z,29.80
2017-09-04T20:54:24.477Z,30.90
2017-09-04T20:56:52.771Z,27.60
2017-09-04T20:59:20.330Z,29.93
2017-09-04T21:01:47.855Z,29.17
2017-09-04T21:04:15.444Z,33.87
2017-09-04T21:06:43.001Z,27.50
2017-09-04T21:09:10.559Z,28.70
2017-09-04T21:11:38.078Z,28.83
2017-09-04T21:14:05.606Z,33.37
2017-09-04T21:16:33.123Z,29.83
2017-09-04T21:19:00.671Z,28.47
2017-09-04T21:21:28.226Z,28.93
2017-09-04T21:23:55.772Z,26.37
2017-09-04T21:26:23.307Z,26.17
2017-09-04T21:28:50.880Z,30.67
2017-09-04T21:31:18.492Z,28.07
2017-09-04T21:33:46.015Z,25.53
2017-09-04T21:36:13.517Z,24.50
2017-09-04T21:38:41.096Z,25.00
2017-09-04T21:41:08.632Z,22.30
2017-09-04T21:43:36.168Z,27.00
2017-09-04T21:46:03.712Z,22.20
2017-09-04T21:48:31.242Z,25.93
2017-09-04T21:50:58.771Z,23.17
2017-09-04T21:53:26.323Z,21.57
2017-09-04T21:55:53.824Z,21.07
2017-09-04T21:58:21.352Z,23.63
2017-09-04T22:00:50.735Z,18.17
2017-09-04T22:03:18.263Z,22.77
2017-09-04T22:05:45.796Z,19.93
2017-09-04T22:08:13.325Z,19.20
2017-09-04T22:10:40.853Z,19.20
2017-09-04T22:13:08.354Z,20.67
2017-09-04T22:15:35.869Z,18.97
2017-09-04T22:18:03.407Z,22.60
2017-09-04T22:20:30.942Z,17.50
2017-09-04T22:22:58.512Z,18.30
2017-09-04T22:25:26.035Z,18.87
2017-09-04T22:27:54.333Z,18.37
2017-09-04T22:30:21.873Z,19.43
2017-09-04T22:32:49.385Z,20.03
2017-09-04T22:35:17.546Z,15.67
2017-09-04T22:37:45.072Z,19.07
2017-09-04T22:40:12.604Z,19.53
2017-09-04T22:42:40.144Z,18.07
2017-09-04T22:45:07.657Z,17.27
2017-09-04T22:47:35.275Z,19.10
2017-09-04T22:50:02.809Z,18.07
2017-09-04T22:52:30.308Z,17.70
2017-09-04T22:54:57.823Z,17.13
2017-09-04T22:57:25.353Z,17.30
2017-09-04T22:59:52.875Z,18.13
2017-09-04T23:02:20.399Z,15.70
2017-09-04T23:04:47.954Z,17.07
2017-09-04T23:07:15.472Z,16.60
2017-09-04T23:09:42.993Z,16.47
2017-09-04T23:12:10.538Z,16.13
2017-09-04T23:14:38.046Z,19.80
2017-09-04T23:17:05.560Z,13.87
2017-09-04T23:19:33.110Z,15.00
2017-09-04T23:22:00.634Z,14.77
2017-09-04T23:24:28.166Z,14.53
2017-09-04T23:26:55.715Z,14.50
2017-09-04T23:29:23.238Z,14.67
2017-09-04T23:31:50.743Z,13.30
2017-09-04T23:34:18.304Z,14.53
2017-09-04T23:36:45.811Z,16.80
2017-09-04T23:39:13.321Z,12.93
2017-09-04T23:41:40.879Z,13.60
2017-09-04T23:44:08.404Z,14.70
2017-09-04T23:46:35.924Z,13.33
2017-09-04T23:49:03.484Z,11.40
2017-09-04T23:51:31.006Z,15.60
2017-09-04T23:53:58.523Z,12.80
2017-09-04T23:56:26.081Z,14.10
2017-09-04T23:58:53.600Z,14.33
